sensor_id;sensor_type;location;lat;lon;timestamp;P1;durP1;ratioP1;P2;durP2;ratioP2
49626;SDS011;35527;54.616;39.786;2024-03-29T00:02:09;6.75;;;3.78;;
49626;SDS011;35527;54.616;39.786;2024-03-29T00:05:13;5.82;;;2.38;;
49626;SDS011;35527;54.616;39.786;2024-03-29T00:08:17;4.35;;;2.10;;
49626;SDS011;35527;54.616;39.786;2024-03-29T00:11:22;5.35;;;2.20;;
49626;SDS011;35527;54.616;39.786;2024-03-29T00:14:24;6.18;;;2.60;;
49626;SDS011;35527;54.616;39.786;2024-03-29T00:17:27;5.72;;;2.25;;
49626;SDS011;35527;54.616;39.786;2024-03-29T00:20:29;5.18;;;2.40;;
49626;SDS011;35527;54.616;39.786;2024-03-29T00:23:32;6.15;;;2.45;;
49626;SDS011;35527;54.616;39.786;2024-03-29T00:26:34;7.00;;;2.58;;
49626;SDS011;35527;54.616;39.786;2024-03-29T00:29:35;8.43;;;2.35;;
49626;SDS011;35527;54.616;39.786;2024-03-29T00:32:40;5.97;;;3.27;;
49626;SDS011;35527;54.616;39.786;2024-03-29T00:35:43;4.63;;;1.95;;
49626;SDS011;35527;54.616;39.786;2024-03-29T00:38:45;4.40;;;2.05;;
49626;SDS011;35527;54.616;39.786;2024-03-29T00:41:46;6.18;;;2.83;;
49626;SDS011;35527;54.616;39.786;2024-03-29T00:44:52;7.80;;;3.45;;
49626;SDS011;35527;54.616;39.786;2024-03-29T00:47:56;5.07;;;2.35;;
49626;SDS011;35527;54.616;39.786;2024-03-29T00:50:57;6.68;;;2.60;;
49626;SDS011;35527;54.616;39.786;2024-03-29T00:53:59;7.30;;;2.70;;
49626;SDS011;35527;54.616;39.786;2024-03-29T00:57:00;7.28;;;2.80;;
49626;SDS011;35527;54.616;39.786;2024-03-29T01:00:04;6.00;;;2.88;;
49626;SDS011;35527;54.616;39.786;2024-03-29T01:03:07;7.75;;;2.60;;
49626;SDS011;35527;54.616;39.786;2024-03-29T01:06:10;6.93;;;2.60;;
49626;SDS011;35527;54.616;39.786;2024-03-29T01:09:14;9.52;;;2.63;;
49626;SDS011;35527;54.616;39.786;2024-03-29T01:12:18;6.75;;;2.75;;
49626;SDS011;35527;54.616;39.786;2024-03-29T01:15:21;5.13;;;2.40;;
49626;SDS011;35527;54.616;39.786;2024-03-29T01:18:24;7.57;;;2.72;;
49626;SDS011;35527;54.616;39.786;2024-03-29T01:21:26;10.55;;;2.95;;
49626;SDS011;35527;54.616;39.786;2024-03-29T01:24:30;5.03;;;2.33;;
49626;SDS011;35527;54.616;39.786;2024-03-29T01:27:35;8.07;;;2.10;;
49626;SDS011;35527;54.616;39.786;2024-03-29T01:30:39;5.68;;;2.30;;
49626;SDS011;35527;54.616;39.786;2024-03-29T01:33:41;6.88;;;2.38;;
49626;SDS011;35527;54.616;39.786;2024-03-29T01:36:45;6.40;;;2.65;;
49626;SDS011;35527;54.616;39.786;2024-03-29T01:39:48;4.50;;;2.03;;
49626;SDS011;35527;54.616;39.786;2024-03-29T01:42:53;4.35;;;1.95;;
49626;SDS011;35527;54.616;39.786;2024-03-29T01:45:57;4.53;;;2.20;;
49626;SDS011;35527;54.616;39.786;2024-03-29T01:49:00;6.05;;;2.17;;
49626;SDS011;35527;54.616;39.786;2024-03-29T01:52:05;5.63;;;2.03;;
49626;SDS011;35527;54.616;39.786;2024-03-29T01:55:07;6.32;;;2.53;;
49626;SDS011;35527;54.616;39.786;2024-03-29T01:58:12;7.40;;;2.17;;
49626;SDS011;35527;54.616;39.786;2024-03-29T02:01:21;6.13;;;2.38;;
49626;SDS011;35527;54.616;39.786;2024-03-29T02:04:23;5.97;;;2.58;;
49626;SDS011;35527;54.616;39.786;2024-03-29T02:07:25;13.38;;;3.63;;
49626;SDS011;35527;54.616;39.786;2024-03-29T02:10:27;7.97;;;3.25;;
49626;SDS011;35527;54.616;39.786;2024-03-29T02:13:32;6.40;;;2.80;;
49626;SDS011;35527;54.616;39.786;2024-03-29T02:16:34;22.75;;;3.72;;
49626;SDS011;35527;54.616;39.786;2024-03-29T02:19:36;6.18;;;2.80;;
49626;SDS011;35527;54.616;39.786;2024-03-29T02:22:41;9.45;;;2.92;;
49626;SDS011;35527;54.616;39.786;2024-03-29T02:25:52;7.75;;;2.90;;
49626;SDS011;35527;54.616;39.786;2024-03-29T02:28:54;7.10;;;2.58;;
49626;SDS011;35527;54.616;39.786;2024-03-29T02:31:56;6.53;;;2.88;;
49626;SDS011;35527;54.616;39.786;2024-03-29T02:35:00;6.60;;;2.42;;
49626;SDS011;35527;54.616;39.786;2024-03-29T02:38:03;5.50;;;2.38;;
49626;SDS011;35527;54.616;39.786;2024-03-29T02:41:04;10.15;;;2.90;;
49626;SDS011;35527;54.616;39.786;2024-03-29T02:44:07;9.52;;;2.50;;
49626;SDS011;35527;54.616;39.786;2024-03-29T02:47:09;4.88;;;2.30;;
49626;SDS011;35527;54.616;39.786;2024-03-29T02:50:13;5.50;;;2.35;;
49626;SDS011;35527;54.616;39.786;2024-03-29T02:56:19;5.90;;;2.00;;
49626;SDS011;35527;54.616;39.786;2024-03-29T02:59:24;5.53;;;1.73;;
49626;SDS011;35527;54.616;39.786;2024-03-29T03:02:27;8.73;;;2.20;;
49626;SDS011;35527;54.616;39.786;2024-03-29T03:05:29;6.40;;;2.80;;
49626;SDS011;35527;54.616;39.786;2024-03-29T03:08:31;5.78;;;2.40;;
49626;SDS011;35527;54.616;39.786;2024-03-29T03:11:52;7.55;;;2.58;;
49626;SDS011;35527;54.616;39.786;2024-03-29T03:14:56;8.65;;;2.70;;
49626;SDS011;35527;54.616;39.786;2024-03-29T03:17:58;9.30;;;2.85;;
49626;SDS011;35527;54.616;39.786;2024-03-29T03:21:01;11.80;;;3.60;;
49626;SDS011;35527;54.616;39.786;2024-03-29T03:24:05;10.93;;;3.60;;
49626;SDS011;35527;54.616;39.786;2024-03-29T03:27:10;9.52;;;3.53;;
49626;SDS011;35527;54.616;39.786;2024-03-29T03:30:12;10.32;;;3.88;;
49626;SDS011;35527;54.616;39.786;2024-03-29T03:33:14;8.68;;;3.55;;
49626;SDS011;35527;54.616;39.786;2024-03-29T03:36:19;16.55;;;4.38;;
49626;SDS011;35527;54.616;39.786;2024-03-29T03:39:22;8.70;;;3.53;;
49626;SDS011;35527;54.616;39.786;2024-03-29T03:42:24;12.93;;;3.78;;
49626;SDS011;35527;54.616;39.786;2024-03-29T03:45:28;9.65;;;3.47;;
49626;SDS011;35527;54.616;39.786;2024-03-29T03:48:32;14.98;;;3.42;;
49626;SDS011;35527;54.616;39.786;2024-03-29T03:51:35;10.93;;;3.75;;
49626;SDS011;35527;54.616;39.786;2024-03-29T03:54:37;14.25;;;4.25;;
49626;SDS011;35527;54.616;39.786;2024-03-29T03:57:40;10.20;;;4.90;;
49626;SDS011;35527;54.616;39.786;2024-03-29T04:00:42;13.55;;;3.55;;
49626;SDS011;35527;54.616;39.786;2024-03-29T04:03:46;8.73;;;3.13;;
49626;SDS011;35527;54.616;39.786;2024-03-29T04:06:48;7.03;;;2.72;;
49626;SDS011;35527;54.616;39.786;2024-03-29T04:09:50;6.88;;;2.45;;
49626;SDS011;35527;54.616;39.786;2024-03-29T04:12:53;6.97;;;2.42;;
49626;SDS011;35527;54.616;39.786;2024-03-29T04:16:01;7.47;;;2.50;;
49626;SDS011;35527;54.616;39.786;2024-03-29T04:19:04;5.50;;;2.30;;
49626;SDS011;35527;54.616;39.786;2024-03-29T04:22:05;4.93;;;2.08;;
49626;SDS011;35527;54.616;39.786;2024-03-29T04:25:08;7.03;;;2.78;;
49626;SDS011;35527;54.616;39.786;2024-03-29T04:28:12;6.40;;;2.85;;
49626;SDS011;35527;54.616;39.786;2024-03-29T04:31:14;10.68;;;3.38;;
49626;SDS011;35527;54.616;39.786;2024-03-29T04:34:17;9.45;;;3.97;;
49626;SDS011;35527;54.616;39.786;2024-03-29T04:37:18;12.32;;;4.93;;
49626;SDS011;35527;54.616;39.786;2024-03-29T04:40:20;6.28;;;2.25;;
49626;SDS011;35527;54.616;39.786;2024-03-29T04:43:26;9.70;;;4.82;;
49626;SDS011;35527;54.616;39.786;2024-03-29T04:46:31;9.75;;;3.17;;
49626;SDS011;35527;54.616;39.786;2024-03-29T04:49:33;10.97;;;3.27;;
49626;SDS011;35527;54.616;39.786;2024-03-29T04:52:38;9.25;;;3.78;;
49626;SDS011;35527;54.616;39.786;2024-03-29T04:55:42;9.35;;;4.43;;
49626;SDS011;35527;54.616;39.786;2024-03-29T04:58:47;6.20;;;3.03;;
49626;SDS011;35527;54.616;39.786;2024-03-29T05:01:49;7.35;;;2.67;;
49626;SDS011;35527;54.616;39.786;2024-03-29T05:04:57;14.20;;;3.42;;
49626;SDS011;35527;54.616;39.786;2024-03-29T05:07:59;9.98;;;3.28;;
49626;SDS011;35527;54.616;39.786;2024-03-29T05:11:01;6.50;;;3.08;;
49626;SDS011;35527;54.616;39.786;2024-03-29T05:14:04;9.57;;;2.97;;
49626;SDS011;35527;54.616;39.786;2024-03-29T05:17:08;6.68;;;2.75;;
49626;SDS011;35527;54.616;39.786;2024-03-29T05:23:14;6.95;;;3.00;;
49626;SDS011;35527;54.616;39.786;2024-03-29T05:26:16;10.63;;;4.60;;
49626;SDS011;35527;54.616;39.786;2024-03-29T05:29:20;7.90;;;2.65;;
49626;SDS011;35527;54.616;39.786;2024-03-29T05:32:21;17.23;;;4.10;;
49626;SDS011;35527;54.616;39.786;2024-03-29T05:35:23;8.05;;;3.35;;
49626;SDS011;35527;54.616;39.786;2024-03-29T05:38:26;8.18;;;3.33;;
49626;SDS011;35527;54.616;39.786;2024-03-29T05:41:30;5.50;;;2.92;;
49626;SDS011;35527;54.616;39.786;2024-03-29T05:44:34;8.10;;;3.05;;
49626;SDS011;35527;54.616;39.786;2024-03-29T05:47:41;7.30;;;2.70;;
49626;SDS011;35527;54.616;39.786;2024-03-29T05:50:45;6.07;;;2.45;;
49626;SDS011;35527;54.616;39.786;2024-03-29T05:53:50;10.50;;;2.92;;
49626;SDS011;35527;54.616;39.786;2024-03-29T05:56:53;6.20;;;3.17;;
49626;SDS011;35527;54.616;39.786;2024-03-29T05:59:54;8.52;;;2.88;;
49626;SDS011;35527;54.616;39.786;2024-03-29T06:02:57;8.65;;;3.70;;
49626;SDS011;35527;54.616;39.786;2024-03-29T06:06:02;7.97;;;3.08;;
49626;SDS011;35527;54.616;39.786;2024-03-29T06:09:04;7.50;;;3.03;;
49626;SDS011;35527;54.616;39.786;2024-03-29T06:12:05;7.63;;;3.00;;
49626;SDS011;35527;54.616;39.786;2024-03-29T06:15:09;8.77;;;4.75;;
49626;SDS011;35527;54.616;39.786;2024-03-29T06:18:31;8.13;;;3.88;;
49626;SDS011;35527;54.616;39.786;2024-03-29T06:21:34;5.70;;;2.72;;
49626;SDS011;35527;54.616;39.786;2024-03-29T06:24:44;11.88;;;3.90;;
49626;SDS011;35527;54.616;39.786;2024-03-29T06:27:47;7.75;;;3.17;;
49626;SDS011;35527;54.616;39.786;2024-03-29T06:30:49;10.13;;;3.83;;
49626;SDS011;35527;54.616;39.786;2024-03-29T06:33:52;13.23;;;5.22;;
49626;SDS011;35527;54.616;39.786;2024-03-29T06:36:53;17.58;;;3.70;;
49626;SDS011;35527;54.616;39.786;2024-03-29T06:39:55;10.88;;;3.60;;
49626;SDS011;35527;54.616;39.786;2024-03-29T06:42:59;9.93;;;3.75;;
49626;SDS011;35527;54.616;39.786;2024-03-29T06:46:04;9.35;;;3.50;;
49626;SDS011;35527;54.616;39.786;2024-03-29T06:49:06;7.82;;;3.00;;
49626;SDS011;35527;54.616;39.786;2024-03-29T06:52:09;8.02;;;3.08;;
49626;SDS011;35527;54.616;39.786;2024-03-29T06:55:15;7.90;;;3.13;;
49626;SDS011;35527;54.616;39.786;2024-03-29T06:58:17;8.50;;;3.60;;
49626;SDS011;35527;54.616;39.786;2024-03-29T07:01:19;11.00;;;5.20;;
49626;SDS011;35527;54.616;39.786;2024-03-29T07:04:23;13.25;;;5.43;;
49626;SDS011;35527;54.616;39.786;2024-03-29T07:07:28;11.98;;;5.60;;
49626;SDS011;35527;54.616;39.786;2024-03-29T07:10:31;7.43;;;3.58;;
49626;SDS011;35527;54.616;39.786;2024-03-29T07:13:40;8.93;;;4.60;;
49626;SDS011;35527;54.616;39.786;2024-03-29T07:16:43;10.50;;;4.63;;
49626;SDS011;35527;54.616;39.786;2024-03-29T07:19:50;9.80;;;3.42;;
49626;SDS011;35527;54.616;39.786;2024-03-29T07:22:51;8.70;;;4.88;;
49626;SDS011;35527;54.616;39.786;2024-03-29T07:26:04;8.00;;;3.25;;
49626;SDS011;35527;54.616;39.786;2024-03-29T07:29:06;9.35;;;4.05;;
49626;SDS011;35527;54.616;39.786;2024-03-29T07:32:10;7.75;;;3.50;;
49626;SDS011;35527;54.616;39.786;2024-03-29T07:35:12;10.50;;;4.90;;
49626;SDS011;35527;54.616;39.786;2024-03-29T07:38:17;13.48;;;3.45;;
49626;SDS011;35527;54.616;39.786;2024-03-29T07:41:21;10.57;;;5.10;;
49626;SDS011;35527;54.616;39.786;2024-03-29T07:44:24;9.65;;;3.63;;
49626;SDS011;35527;54.616;39.786;2024-03-29T07:47:25;9.43;;;3.90;;
49626;SDS011;35527;54.616;39.786;2024-03-29T07:50:28;7.97;;;3.35;;
49626;SDS011;35527;54.616;39.786;2024-03-29T07:53:32;8.18;;;3.38;;
49626;SDS011;35527;54.616;39.786;2024-03-29T07:56:35;11.57;;;3.28;;
49626;SDS011;35527;54.616;39.786;2024-03-29T07:59:37;7.18;;;3.38;;
49626;SDS011;35527;54.616;39.786;2024-03-29T08:02:41;12.05;;;5.32;;
49626;SDS011;35527;54.616;39.786;2024-03-29T08:05:43;7.47;;;3.30;;
49626;SDS011;35527;54.616;39.786;2024-03-29T08:09:01;8.03;;;3.53;;
49626;SDS011;35527;54.616;39.786;2024-03-29T08:12:05;5.45;;;2.60;;
49626;SDS011;35527;54.616;39.786;2024-03-29T08:15:07;11.50;;;3.70;;
49626;SDS011;35527;54.616;39.786;2024-03-29T08:18:09;19.20;;;5.20;;
49626;SDS011;35527;54.616;39.786;2024-03-29T08:21:11;9.45;;;3.60;;
49626;SDS011;35527;54.616;39.786;2024-03-29T08:24:14;7.32;;;2.97;;
49626;SDS011;35527;54.616;39.786;2024-03-29T08:27:17;7.70;;;3.08;;
49626;SDS011;35527;54.616;39.786;2024-03-29T08:30:20;7.88;;;3.38;;
49626;SDS011;35527;54.616;39.786;2024-03-29T08:33:25;6.82;;;2.90;;
49626;SDS011;35527;54.616;39.786;2024-03-29T08:36:27;7.80;;;3.17;;
49626;SDS011;35527;54.616;39.786;2024-03-29T08:39:29;7.80;;;3.45;;
49626;SDS011;35527;54.616;39.786;2024-03-29T08:42:32;10.98;;;5.72;;
49626;SDS011;35527;54.616;39.786;2024-03-29T08:45:44;9.85;;;5.45;;
49626;SDS011;35527;54.616;39.786;2024-03-29T08:48:49;9.38;;;3.72;;
49626;SDS011;35527;54.616;39.786;2024-03-29T08:51:50;8.60;;;5.10;;
49626;SDS011;35527;54.616;39.786;2024-03-29T08:54:55;7.38;;;3.13;;
49626;SDS011;35527;54.616;39.786;2024-03-29T08:58:00;6.80;;;3.40;;
49626;SDS011;35527;54.616;39.786;2024-03-29T09:01:03;11.03;;;3.90;;
49626;SDS011;35527;54.616;39.786;2024-03-29T09:04:05;9.65;;;5.90;;
49626;SDS011;35527;54.616;39.786;2024-03-29T09:07:09;7.88;;;4.15;;
49626;SDS011;35527;54.616;39.786;2024-03-29T09:10:13;8.98;;;4.03;;
49626;SDS011;35527;54.616;39.786;2024-03-29T09:13:18;8.15;;;4.05;;
49626;SDS011;35527;54.616;39.786;2024-03-29T09:16:19;7.80;;;3.67;;
49626;SDS011;35527;54.616;39.786;2024-03-29T09:19:21;9.55;;;3.40;;
49626;SDS011;35527;54.616;39.786;2024-03-29T09:22:25;8.95;;;4.45;;
49626;SDS011;35527;54.616;39.786;2024-03-29T09:25:28;8.93;;;3.90;;
49626;SDS011;35527;54.616;39.786;2024-03-29T09:28:40;9.82;;;4.00;;
49626;SDS011;35527;54.616;39.786;2024-03-29T09:31:42;9.10;;;4.18;;
49626;SDS011;35527;54.616;39.786;2024-03-29T09:34:44;14.57;;;6.95;;
49626;SDS011;35527;54.616;39.786;2024-03-29T09:37:48;18.70;;;9.40;;
49626;SDS011;35527;54.616;39.786;2024-03-29T09:40:51;21.92;;;14.32;;
49626;SDS011;35527;54.616;39.786;2024-03-29T09:44:06;19.52;;;13.00;;
49626;SDS011;35527;54.616;39.786;2024-03-29T09:47:15;25.73;;;15.25;;
49626;SDS011;35527;54.616;39.786;2024-03-29T09:53:23;14.50;;;7.72;;
49626;SDS011;35527;54.616;39.786;2024-03-29T09:56:27;20.08;;;11.85;;
49626;SDS011;35527;54.616;39.786;2024-03-29T09:59:32;21.35;;;15.00;;
49626;SDS011;35527;54.616;39.786;2024-03-29T10:02:36;19.85;;;11.18;;
49626;SDS011;35527;54.616;39.786;2024-03-29T10:05:42;19.83;;;13.23;;
49626;SDS011;35527;54.616;39.786;2024-03-29T10:08:46;11.45;;;5.97;;
49626;SDS011;35527;54.616;39.786;2024-03-29T10:11:52;10.63;;;5.30;;
49626;SDS011;35527;54.616;39.786;2024-03-29T10:14:56;13.80;;;8.63;;
49626;SDS011;35527;54.616;39.786;2024-03-29T10:18:08;12.63;;;8.18;;
49626;SDS011;35527;54.616;39.786;2024-03-29T10:21:11;11.65;;;5.70;;
49626;SDS011;35527;54.616;39.786;2024-03-29T10:24:17;9.27;;;4.80;;
49626;SDS011;35527;54.616;39.786;2024-03-29T10:27:19;10.20;;;5.00;;
49626;SDS011;35527;54.616;39.786;2024-03-29T10:30:20;11.23;;;5.47;;
49626;SDS011;35527;54.616;39.786;2024-03-29T10:33:23;10.27;;;4.53;;
49626;SDS011;35527;54.616;39.786;2024-03-29T10:36:33;9.75;;;4.90;;
49626;SDS011;35527;54.616;39.786;2024-03-29T10:39:37;11.98;;;5.43;;
49626;SDS011;35527;54.616;39.786;2024-03-29T10:42:43;9.27;;;5.25;;
49626;SDS011;35527;54.616;39.786;2024-03-29T10:45:51;10.43;;;5.00;;
49626;SDS011;35527;54.616;39.786;2024-03-29T10:49:04;10.52;;;5.45;;
49626;SDS011;35527;54.616;39.786;2024-03-29T10:52:13;11.23;;;5.20;;
49626;SDS011;35527;54.616;39.786;2024-03-29T10:55:18;12.20;;;8.30;;
49626;SDS011;35527;54.616;39.786;2024-03-29T10:58:27;9.80;;;5.13;;
49626;SDS011;35527;54.616;39.786;2024-03-29T11:01:36;9.63;;;5.10;;
49626;SDS011;35527;54.616;39.786;2024-03-29T11:04:44;13.77;;;5.60;;
49626;SDS011;35527;54.616;39.786;2024-03-29T11:07:48;11.10;;;5.37;;
49626;SDS011;35527;54.616;39.786;2024-03-29T11:10:51;12.98;;;8.63;;
49626;SDS011;35527;54.616;39.786;2024-03-29T11:14:05;11.32;;;6.07;;
49626;SDS011;35527;54.616;39.786;2024-03-29T11:20:17;11.07;;;5.80;;
49626;SDS011;35527;54.616;39.786;2024-03-29T11:23:26;11.85;;;6.00;;
49626;SDS011;35527;54.616;39.786;2024-03-29T11:26:32;13.52;;;9.00;;
49626;SDS011;35527;54.616;39.786;2024-03-29T11:29:36;12.27;;;8.75;;
49626;SDS011;35527;54.616;39.786;2024-03-29T11:32:44;13.77;;;6.15;;
49626;SDS011;35527;54.616;39.786;2024-03-29T11:35:47;12.23;;;6.35;;
49626;SDS011;35527;54.616;39.786;2024-03-29T11:38:50;14.38;;;9.13;;
49626;SDS011;35527;54.616;39.786;2024-03-29T11:41:53;15.18;;;6.35;;
49626;SDS011;35527;54.616;39.786;2024-03-29T11:44:56;11.18;;;6.13;;
49626;SDS011;35527;54.616;39.786;2024-03-29T11:47:59;13.10;;;10.20;;
49626;SDS011;35527;54.616;39.786;2024-03-29T11:51:06;16.20;;;4.95;;
49626;SDS011;35527;54.616;39.786;2024-03-29T11:54:12;14.98;;;7.25;;
49626;SDS011;35527;54.616;39.786;2024-03-29T11:57:13;11.63;;;6.07;;
49626;SDS011;35527;54.616;39.786;2024-03-29T12:00:15;15.05;;;10.40;;
49626;SDS011;35527;54.616;39.786;2024-03-29T12:03:21;16.30;;;7.07;;
49626;SDS011;35527;54.616;39.786;2024-03-29T12:06:23;12.40;;;6.45;;
49626;SDS011;35527;54.616;39.786;2024-03-29T12:09:25;14.75;;;10.20;;
49626;SDS011;35527;54.616;39.786;2024-03-29T12:15:45;10.88;;;5.75;;
49626;SDS011;35527;54.616;39.786;2024-03-29T12:18:48;11.10;;;6.85;;
49626;SDS011;35527;54.616;39.786;2024-03-29T12:22:09;14.93;;;10.25;;
49626;SDS011;35527;54.616;39.786;2024-03-29T12:25:13;13.90;;;7.38;;
49626;SDS011;35527;54.616;39.786;2024-03-29T12:28:20;13.35;;;6.80;;
49626;SDS011;35527;54.616;39.786;2024-03-29T12:31:23;14.63;;;7.35;;
49626;SDS011;35527;54.616;39.786;2024-03-29T12:34:25;15.02;;;7.82;;
49626;SDS011;35527;54.616;39.786;2024-03-29T12:37:26;18.33;;;8.75;;
49626;SDS011;35527;54.616;39.786;2024-03-29T12:40:36;14.18;;;7.20;;
49626;SDS011;35527;54.616;39.786;2024-03-29T12:43:38;17.13;;;12.18;;
49626;SDS011;35527;54.616;39.786;2024-03-29T12:46:41;17.27;;;12.18;;
49626;SDS011;35527;54.616;39.786;2024-03-29T12:49:44;12.20;;;7.13;;
49626;SDS011;35527;54.616;39.786;2024-03-29T12:52:47;18.38;;;12.13;;
49626;SDS011;35527;54.616;39.786;2024-03-29T12:55:49;14.75;;;8.18;;
49626;SDS011;35527;54.616;39.786;2024-03-29T12:58:50;15.68;;;8.98;;
49626;SDS011;35527;54.616;39.786;2024-03-29T13:01:52;15.57;;;9.07;;
49626;SDS011;35527;54.616;39.786;2024-03-29T13:04:59;15.27;;;7.72;;
49626;SDS011;35527;54.616;39.786;2024-03-29T13:08:05;18.85;;;13.13;;
49626;SDS011;35527;54.616;39.786;2024-03-29T13:11:12;17.00;;;8.27;;
49626;SDS011;35527;54.616;39.786;2024-03-29T13:14:14;15.55;;;8.07;;
49626;SDS011;35527;54.616;39.786;2024-03-29T13:17:19;16.10;;;8.43;;
49626;SDS011;35527;54.616;39.786;2024-03-29T13:20:22;20.08;;;12.85;;
49626;SDS011;35527;54.616;39.786;2024-03-29T13:23:25;17.48;;;12.85;;
49626;SDS011;35527;54.616;39.786;2024-03-29T13:26:27;16.83;;;8.63;;
49626;SDS011;35527;54.616;39.786;2024-03-29T13:29:32;18.20;;;13.48;;
49626;SDS011;35527;54.616;39.786;2024-03-29T13:32:40;16.98;;;8.45;;
49626;SDS011;35527;54.616;39.786;2024-03-29T13:35:46;14.30;;;6.20;;
49626;SDS011;35527;54.616;39.786;2024-03-29T13:38:49;18.20;;;8.75;;
49626;SDS011;35527;54.616;39.786;2024-03-29T13:41:56;17.83;;;13.73;;
49626;SDS011;35527;54.616;39.786;2024-03-29T13:44:57;16.58;;;7.78;;
49626;SDS011;35527;54.616;39.786;2024-03-29T13:47:59;20.00;;;13.65;;
49626;SDS011;35527;54.616;39.786;2024-03-29T13:51:02;18.40;;;8.70;;
49626;SDS011;35527;54.616;39.786;2024-03-29T13:54:06;15.85;;;8.25;;
49626;SDS011;35527;54.616;39.786;2024-03-29T14:00:11;16.95;;;8.88;;
49626;SDS011;35527;54.616;39.786;2024-03-29T14:03:22;17.08;;;8.85;;
49626;SDS011;35527;54.616;39.786;2024-03-29T14:06:26;18.50;;;8.98;;
49626;SDS011;35527;54.616;39.786;2024-03-29T14:09:28;17.73;;;9.02;;
49626;SDS011;35527;54.616;39.786;2024-03-29T14:12:29;17.75;;;7.97;;
49626;SDS011;35527;54.616;39.786;2024-03-29T14:15:32;16.52;;;8.65;;
49626;SDS011;35527;54.616;39.786;2024-03-29T14:18:34;15.98;;;8.60;;
49626;SDS011;35527;54.616;39.786;2024-03-29T14:21:39;18.08;;;8.38;;
49626;SDS011;35527;54.616;39.786;2024-03-29T14:24:42;15.88;;;8.15;;
49626;SDS011;35527;54.616;39.786;2024-03-29T14:27:46;17.60;;;14.07;;
49626;SDS011;35527;54.616;39.786;2024-03-29T14:30:56;16.67;;;9.15;;
49626;SDS011;35527;54.616;39.786;2024-03-29T14:34:00;16.98;;;8.35;;
49626;SDS011;35527;54.616;39.786;2024-03-29T14:37:01;15.70;;;8.82;;
49626;SDS011;35527;54.616;39.786;2024-03-29T14:40:05;20.27;;;8.50;;
49626;SDS011;35527;54.616;39.786;2024-03-29T14:43:10;19.15;;;9.48;;
49626;SDS011;35527;54.616;39.786;2024-03-29T14:46:11;18.77;;;9.15;;
49626;SDS011;35527;54.616;39.786;2024-03-29T14:49:14;19.58;;;14.05;;
49626;SDS011;35527;54.616;39.786;2024-03-29T14:52:20;19.90;;;13.90;;
49626;SDS011;35527;54.616;39.786;2024-03-29T14:55:24;16.17;;;9.82;;
49626;SDS011;35527;54.616;39.786;2024-03-29T14:58:28;22.95;;;14.93;;
49626;SDS011;35527;54.616;39.786;2024-03-29T15:01:30;17.88;;;9.27;;
49626;SDS011;35527;54.616;39.786;2024-03-29T15:04:34;17.50;;;8.50;;
49626;SDS011;35527;54.616;39.786;2024-03-29T15:07:39;14.85;;;8.50;;
49626;SDS011;35527;54.616;39.786;2024-03-29T15:10:43;16.60;;;8.82;;
49626;SDS011;35527;54.616;39.786;2024-03-29T15:13:45;15.32;;;8.90;;
49626;SDS011;35527;54.616;39.786;2024-03-29T15:16:47;18.80;;;14.10;;
49626;SDS011;35527;54.616;39.786;2024-03-29T15:19:52;17.25;;;8.73;;
49626;SDS011;35527;54.616;39.786;2024-03-29T15:22:54;17.40;;;13.60;;
49626;SDS011;35527;54.616;39.786;2024-03-29T15:25:58;16.40;;;8.98;;
49626;SDS011;35527;54.616;39.786;2024-03-29T15:29:04;17.33;;;8.90;;
49626;SDS011;35527;54.616;39.786;2024-03-29T15:32:10;17.05;;;13.50;;
49626;SDS011;35527;54.616;39.786;2024-03-29T15:35:12;17.02;;;8.63;;
49626;SDS011;35527;54.616;39.786;2024-03-29T15:38:14;19.25;;;8.65;;
49626;SDS011;35527;54.616;39.786;2024-03-29T15:41:21;18.95;;;14.65;;
49626;SDS011;35527;54.616;39.786;2024-03-29T15:44:25;17.30;;;9.48;;
49626;SDS011;35527;54.616;39.786;2024-03-29T15:47:32;14.48;;;7.15;;
49626;SDS011;35527;54.616;39.786;2024-03-29T15:50:35;21.42;;;15.10;;
49626;SDS011;35527;54.616;39.786;2024-03-29T15:53:39;20.45;;;14.63;;
49626;SDS011;35527;54.616;39.786;2024-03-29T15:56:43;19.48;;;8.88;;
49626;SDS011;35527;54.616;39.786;2024-03-29T15:59:46;20.00;;;15.10;;
49626;SDS011;35527;54.616;39.786;2024-03-29T16:02:50;15.90;;;8.77;;
49626;SDS011;35527;54.616;39.786;2024-03-29T16:05:54;17.95;;;9.77;;
49626;SDS011;35527;54.616;39.786;2024-03-29T16:09:00;21.75;;;9.23;;
49626;SDS011;35527;54.616;39.786;2024-03-29T16:12:04;17.27;;;8.80;;
49626;SDS011;35527;54.616;39.786;2024-03-29T16:15:07;22.05;;;15.98;;
49626;SDS011;35527;54.616;39.786;2024-03-29T16:18:10;16.58;;;9.23;;
49626;SDS011;35527;54.616;39.786;2024-03-29T16:21:13;28.33;;;10.65;;
49626;SDS011;35527;54.616;39.786;2024-03-29T16:24:14;19.65;;;9.65;;
49626;SDS011;35527;54.616;39.786;2024-03-29T16:27:17;20.80;;;15.73;;
49626;SDS011;35527;54.616;39.786;2024-03-29T16:30:26;15.75;;;9.02;;
49626;SDS011;35527;54.616;39.786;2024-03-29T16:33:31;22.23;;;16.80;;
49626;SDS011;35527;54.616;39.786;2024-03-29T16:36:38;17.60;;;10.07;;
49626;SDS011;35527;54.616;39.786;2024-03-29T16:39:39;22.25;;;10.02;;
49626;SDS011;35527;54.616;39.786;2024-03-29T16:42:44;22.20;;;10.25;;
49626;SDS011;35527;54.616;39.786;2024-03-29T16:45:47;17.65;;;10.75;;
49626;SDS011;35527;54.616;39.786;2024-03-29T16:48:49;19.20;;;11.13;;
49626;SDS011;35527;54.616;39.786;2024-03-29T16:51:51;23.65;;;11.73;;
49626;SDS011;35527;54.616;39.786;2024-03-29T16:54:53;19.35;;;10.10;;
49626;SDS011;35527;54.616;39.786;2024-03-29T16:57:57;20.80;;;9.90;;
49626;SDS011;35527;54.616;39.786;2024-03-29T17:01:00;22.98;;;17.73;;
49626;SDS011;35527;54.616;39.786;2024-03-29T17:04:02;20.02;;;10.93;;
49626;SDS011;35527;54.616;39.786;2024-03-29T17:07:06;21.63;;;10.68;;
49626;SDS011;35527;54.616;39.786;2024-03-29T17:10:09;24.42;;;18.20;;
49626;SDS011;35527;54.616;39.786;2024-03-29T17:13:11;23.00;;;11.45;;
49626;SDS011;35527;54.616;39.786;2024-03-29T17:16:14;20.35;;;10.05;;
49626;SDS011;35527;54.616;39.786;2024-03-29T17:19:19;23.15;;;17.70;;
49626;SDS011;35527;54.616;39.786;2024-03-29T17:22:27;16.42;;;8.50;;
49626;SDS011;35527;54.616;39.786;2024-03-29T17:25:28;24.40;;;17.83;;
49626;SDS011;35527;54.616;39.786;2024-03-29T17:28:30;18.83;;;9.45;;
49626;SDS011;35527;54.616;39.786;2024-03-29T17:31:35;20.80;;;10.97;;
49626;SDS011;35527;54.616;39.786;2024-03-29T17:34:42;21.88;;;17.33;;
49626;SDS011;35527;54.616;39.786;2024-03-29T17:37:44;25.17;;;11.63;;
49626;SDS011;35527;54.616;39.786;2024-03-29T17:40:47;25.77;;;11.23;;
49626;SDS011;35527;54.616;39.786;2024-03-29T17:43:50;18.65;;;11.75;;
49626;SDS011;35527;54.616;39.786;2024-03-29T17:46:53;21.90;;;9.30;;
49626;SDS011;35527;54.616;39.786;2024-03-29T17:49:56;23.50;;;11.70;;
49626;SDS011;35527;54.616;39.786;2024-03-29T17:52:59;23.55;;;11.05;;
49626;SDS011;35527;54.616;39.786;2024-03-29T17:56:02;21.63;;;10.65;;
49626;SDS011;35527;54.616;39.786;2024-03-29T17:59:08;21.00;;;11.77;;
49626;SDS011;35527;54.616;39.786;2024-03-29T18:02:11;19.92;;;10.98;;
49626;SDS011;35527;54.616;39.786;2024-03-29T18:05:13;24.73;;;19.13;;
49626;SDS011;35527;54.616;39.786;2024-03-29T18:08:15;24.10;;;11.88;;
49626;SDS011;35527;54.616;39.786;2024-03-29T18:11:19;21.95;;;11.90;;
49626;SDS011;35527;54.616;39.786;2024-03-29T18:14:29;23.50;;;11.63;;
49626;SDS011;35527;54.616;39.786;2024-03-29T18:17:31;26.88;;;20.02;;